Time;durP1;ratioP1;P1;durP2;ratioP2;P2;SDS_P1;SDS_P2;PMS_P1;PMS_P2;Temp;Humidity;BMP_temperature;BMP_pressure;BME280_temperature;BME280_humidity;BME280_pressure;Samples;Min_cycle;Max_cycle;Signal;HPM_P1;HPM_P2
2021/12/08 00:01:43;;;;;;;8.32;2.40;;;6.80;99.90;;;6.29;93.78;99379.34;4134323;28;20046;-76
2021/12/08 00:03:44;;;;;;;4.72;1.85;;;6.70;99.90;;;5.96;95.77;99373.22;4116234;28;21423;-76
2021/12/08 00:05:46;;;;;;;2.88;1.60;;;6.70;99.90;;;5.95;96.83;99371.56;4118515;28;20035;-76
2021/12/08 00:07:49;;;;;;;4.20;1.40;;;6.60;99.90;;;5.95;95.71;99359.31;4118374;28;20023;-76
2021/12/08 00:10:02;;;;;;;10.00;1.58;;;6.60;99.90;;;5.90;97.19;99368.63;4119568;28;20486;-76
2021/12/08 00:14:23;;;;;;;4.53;1.85;;;6.50;99.90;;;5.98;95.96;99374.69;4118448;28;20042;-76
2021/12/08 00:16:24;;;;;;;7.88;2.97;;;6.50;99.90;;;6.01;95.58;99366.53;4118366;28;20023;-76
2021/12/08 00:18:29;;;;;;;7.88;2.47;;;6.50;99.90;;;6.17;95.00;99376.22;4119568;28;20030;-76
2021/12/08 00:20:32;;;;;;;4.65;3.17;;;6.50;99.90;;;6.22;95.12;99373.09;4118489;28;20078;-76
2021/12/08 00:22:33;;;;;;;13.32;5.18;;;6.60;99.90;;;6.02;94.67;99368.16;4118271;28;20038;-76
2021/12/08 00:24:34;;;;;;;12.50;4.55;;;6.60;99.90;;;6.07;95.45;99370.28;4119519;28;20022;-76
2021/12/08 00:26:36;;;;;;;7.03;3.33;;;6.60;99.90;;;5.99;96.05;99363.25;4119431;28;20035;-76
2021/12/08 00:28:36;;;;;;;6.03;2.65;;;6.60;99.90;;;5.91;97.07;99375.50;4119338;28;20082;-76
2021/12/08 00:30:41;;;;;;;4.28;2.63;;;6.60;99.90;;;5.98;97.97;99385.16;4118331;28;20062;-76
2021/12/08 00:32:44;;;;;;;6.07;1.85;;;6.60;99.90;;;6.04;97.86;99376.66;4118216;28;20031;-76
2021/12/08 00:34:45;;;;;;;8.15;1.80;;;6.60;99.90;;;5.94;97.60;99369.94;4119124;28;20035;-76
2021/12/08 00:36:50;;;;;;;3.63;1.48;;;6.60;99.90;;;5.94;97.42;99370.75;4121269;28;20418;-76
2021/12/08 00:38:51;;;;;;;6.30;1.95;;;6.60;99.90;;;5.97;98.37;99375.66;4136965;28;20038;-76
2021/12/08 00:40:52;;;;;;;5.85;1.70;;;6.50;99.90;;;5.95;97.45;99361.09;4121276;28;20090;-76
2021/12/08 00:42:54;;;;;;;4.45;2.03;;;6.50;99.90;;;5.86;97.15;99362.88;4122236;28;20061;-76
2021/12/08 00:44:55;;;;;;;6.13;2.92;;;6.40;99.90;;;5.69;98.27;99360.34;4121470;28;20030;-76
2021/12/08 00:46:56;;;;;;;4.63;2.13;;;6.30;99.90;;;5.68;99.09;99363.94;4122587;28;20026;-76
2021/12/08 00:48:57;;;;;;;4.22;2.40;;;6.30;99.90;;;5.66;100.00;99361.50;4121275;28;20037;-76
2021/12/08 00:50:58;;;;;;;3.42;1.70;;;6.30;99.90;;;5.59;100.00;99363.09;4122403;28;20055;-76
2021/12/08 00:53:00;;;;;;;6.20;1.67;;;6.20;99.90;;;5.46;100.00;99354.88;4121349;28;20398;-76
2021/12/08 00:55:05;;;;;;;10.40;2.92;;;6.10;99.90;;;5.59;100.00;99353.44;4121194;28;20411;-76
2021/12/08 00:57:07;;;;;;;6.90;1.88;;;6.10;99.90;;;5.78;98.51;99354.16;4137416;28;20030;-76
2021/12/08 00:59:08;;;;;;;4.05;1.83;;;6.20;99.90;;;5.66;98.76;99355.44;4122140;28;20050;-76
2021/12/08 01:01:09;;;;;;;5.85;1.83;;;6.20;99.90;;;5.65;99.92;99356.41;4121209;28;20050;-76
2021/12/08 01:03:13;;;;;;;3.65;1.75;;;6.30;99.90;;;5.73;100.00;99366.91;4121110;28;20476;-76
2021/12/08 01:05:19;;;;;;;4.50;1.70;;;6.30;99.90;;;5.77;100.00;99363.81;4120906;28;20047;-76
2021/12/08 01:07:19;;;;;;;7.03;1.90;;;6.30;99.90;;;5.90;99.60;99389.56;4122131;28;20050;-76
2021/12/08 01:09:21;;;;;;;4.68;1.63;;;6.40;99.90;;;5.39;100.00;99396.53;4137192;28;20026;-76
2021/12/08 01:11:23;;;;;;;5.97;2.78;;;6.40;99.90;;;5.51;100.00;99403.13;4136925;28;20034;-76
2021/12/08 01:13:25;;;;;;;6.38;2.20;;;6.30;99.90;;;5.86;100.00;99411.78;4148348;28;20033;-76
2021/12/08 01:15:28;;;;;;;5.60;2.53;;;6.40;99.90;;;5.67;100.00;99389.28;4153066;28;20030;-76
2021/12/08 01:17:29;;;;;;;5.35;2.20;;;6.70;99.90;;;5.42;100.00;99390.16;4122275;28;20027;-76
2021/12/08 01:19:31;;;;;;;3.95;2.67;;;6.50;99.90;;;5.49;100.00;99375.50;4136837;28;20024;-76
2021/12/08 01:21:32;;;;;;;5.57;2.50;;;6.30;99.90;;;5.31;100.00;99357.28;4121918;28;20023;-76
2021/12/08 01:23:35;;;;;;;8.48;2.92;;;6.30;99.90;;;5.36;100.00;99355.00;4121317;28;20406;-76
2021/12/08 01:25:36;;;;;;;9.30;4.10;;;6.20;99.90;;;5.33;100.00;99350.06;4111739;28;20430;-76
2021/12/08 01:27:38;;;;;;;7.43;3.33;;;6.10;99.90;;;5.47;100.00;99339.00;4120440;28;20047;-76
2021/12/08 01:29:39;;;;;;;6.93;3.50;;;6.20;99.90;;;5.37;100.00;99320.03;4120713;28;20049;-76
2021/12/08 01:31:42;;;;;;;9.70;3.35;;;6.10;99.90;;;5.28;100.00;99315.75;4136599;28;20078;-76
2021/12/08 01:33:43;;;;;;;11.50;2.30;;;6.00;99.90;;;5.20;100.00;99312.25;4121781;28;20033;-76
2021/12/08 01:35:44;;;;;;;8.45;3.10;;;6.00;99.90;;;5.29;100.00;99314.75;4120607;28;20143;-76
2021/12/08 01:37:45;;;;;;;10.27;3.55;;;6.00;99.90;;;5.41;100.00;99331.81;4120548;28;20038;-76
2021/12/08 01:39:46;;;;;;;6.00;2.90;;;6.00;99.90;;;5.44;100.00;99328.88;4120322;28;20026;-76
2021/12/08 01:41:48;;;;;;;6.68;2.92;;;6.00;99.90;;;5.47;100.00;99336.41;4120357;28;20022;-76
2021/12/08 01:46:12;;;;;;;4.30;2.40;;;6.00;99.90;;;5.40;100.00;99345.88;4134178;28;20097;-76
2021/12/08 01:48:19;;;;;;;5.70;2.10;;;5.90;99.90;;;5.29;100.00;99356.59;4120582;28;20038;-76
2021/12/08 01:50:20;;;;;;;7.13;2.35;;;5.80;99.90;;;5.23;100.00;99359.81;4120425;28;20486;-76
2021/12/08 01:52:22;;;;;;;4.00;1.77;;;5.80;99.90;;;5.25;100.00;99367.53;4121573;28;20049;-76
2021/12/08 01:54:23;;;;;;;6.82;2.55;;;5.80;99.90;;;5.28;100.00;99361.97;4120125;28;20065;-76
2021/12/08 01:56:25;;;;;;;8.77;2.55;;;5.90;99.90;;;5.26;100.00;99359.50;4120353;28;20081;-76
2021/12/08 01:58:27;;;;;;;6.25;2.10;;;5.90;99.90;;;5.37;100.00;99371.50;4119962;28;20030;-76
2021/12/08 02:00:48;;;;;;;4.72;1.88;;;5.90;99.90;;;5.36;100.00;99368.06;4120222;28;20026;-76
2021/12/08 02:02:49;;;;;;;6.57;1.67;;;5.90;99.90;;;5.45;100.00;99367.13;4121587;28;20371;-76
2021/12/08 02:04:50;;;;;;;8.10;2.20;;;5.90;99.90;;;5.34;100.00;99361.38;4119968;28;20122;-76
2021/12/08 02:06:51;;;;;;;4.63;2.35;;;5.80;99.90;;;5.32;100.00;99366.72;4136202;28;20034;-76
2021/12/08 02:08:53;;;;;;;4.07;1.83;;;5.80;99.90;;;5.16;100.00;99363.22;4121114;28;20050;-76
2021/12/08 02:10:54;;;;;;;3.35;2.03;;;5.70;99.90;;;5.16;100.00;99364.06;4120094;28;20030;-76
2021/12/08 02:12:55;;;;;;;3.83;1.90;;;5.70;99.90;;;4.98;100.00;99374.56;4119828;28;20086;-76
2021/12/08 02:14:59;;;;;;;6.55;2.03;;;5.60;99.90;;;5.09;100.00;99381.31;4136029;28;20085;-76
2021/12/08 02:17:00;;;;;;;5.30;2.08;;;5.60;99.90;;;5.17;100.00;99381.34;4121086;28;20117;-76
2021/12/08 02:19:03;;;;;;;7.88;3.67;;;5.60;99.90;;;5.12;100.00;99390.63;4120029;28;20030;-76
2021/12/08 02:21:28;;;;;;;7.10;2.50;;;5.60;99.90;;;5.23;100.00;99390.38;4121029;28;20478;-77
2021/12/08 02:23:31;;;;;;;4.45;2.22;;;5.60;99.90;;;5.21;100.00;99384.47;4133862;28;20038;-76
2021/12/08 02:25:32;;;;;;;6.35;2.22;;;5.70;99.90;;;5.10;100.00;99384.75;4124917;28;20486;-76
2021/12/08 02:27:33;;;;;;;6.05;2.78;;;5.60;99.90;;;5.06;100.00;99386.84;4120701;28;20030;-76
2021/12/08 02:29:48;;;;;;;6.18;2.90;;;6.80;99.90;;;5.11;100.00;99381.19;4119783;28;20035;-76
2021/12/08 02:31:58;;;;;;;7.63;2.50;;;5.60;99.90;;;5.12;100.00;99388.03;4119988;28;20030;-76
2021/12/08 02:47:58;;;;;;;7.72;2.50;;;5.80;99.90;;;5.37;100.00;99393.25;4120716;28;20098;-76
2021/12/08 02:49:59;;;;;;;4.80;2.45;;;5.90;99.90;;;5.54;100.00;99389.72;4119513;28;20030;-76
2021/12/08 02:52:01;;;;;;;6.47;2.50;;;6.00;99.90;;;5.49;100.00;99392.00;4120636;28;20031;-76
2021/12/08 02:54:04;;;;;;;8.32;2.70;;;6.00;99.90;;;5.44;100.00;99390.81;4119283;28;20102;-76
2021/12/08 02:56:05;;;;;;;3.78;2.28;;;6.00;99.90;;;5.72;100.00;99396.66;4119237;28;20033;-77
2021/12/08 02:58:07;;;;;;;7.90;2.33;;;6.10;99.90;;;5.39;100.00;99395.69;4118704;28;20023;-76
2021/12/08 03:00:12;;;;;;;9.15;2.47;;;6.10;99.90;;;5.40;100.00;99395.56;4119305;28;20403;-76
2021/12/08 03:02:14;;;;;;;6.07;2.25;;;6.10;99.90;;;5.44;100.00;99394.25;4120520;28;20027;-76
2021/12/08 03:04:15;;;;;;;7.45;2.80;;;6.10;99.90;;;5.49;100.00;99394.63;4118932;28;20057;-76
2021/12/08 03:06:17;;;;;;;6.38;2.90;;;6.10;99.90;;;5.73;100.00;99395.69;4135362;28;20485;-76
2021/12/08 03:08:18;;;;;;;9.85;3.10;;;6.10;99.90;;;5.63;100.00;99402.84;4119149;28;20042;-76
2021/12/08 03:10:26;;;;;;;6.97;3.85;;;6.10;99.90;;;5.66;100.00;99403.34;4119086;28;20615;-76
2021/12/08 03:12:29;;;;;;;8.32;3.13;;;6.20;99.90;;;5.58;100.00;99398.88;4119059;28;20522;-76
2021/12/08 03:14:31;;;;;;;10.05;2.40;;;6.30;99.90;;;5.44;100.00;99411.72;4120310;28;20560;-76
2021/12/08 03:16:34;;;;;;;4.75;2.25;;;6.30;99.90;;;5.48;100.00;99410.44;4119135;28;20022;-76
2021/12/08 03:18:39;;;;;;;7.70;2.08;;;6.30;99.90;;;5.44;100.00;99396.03;4120163;28;20046;-76
2021/12/08 03:20:42;;;;;;;7.28;2.22;;;6.30;99.90;;;5.68;100.00;99387.47;4119060;28;20035;-76
2021/12/08 03:22:47;;;;;;;8.90;2.35;;;6.40;99.90;;;5.49;100.00;99388.56;4120051;28;20026;-76
2021/12/08 03:24:50;;;;;;;4.70;2.10;;;6.30;99.90;;;5.33;100.00;99367.56;4118991;28;20022;-76
2021/12/08 03:29:17;;;;;;;4.40;2.10;;;6.30;99.90;;;5.17;100.00;99354.41;4119206;28;20038;-76
2021/12/08 03:31:20;;;;;;;4.60;1.88;;;6.20;99.90;;;5.15;100.00;99357.19;4119088;28;20027;-76
2021/12/08 03:33:21;;;;;;;3.55;1.80;;;6.10;99.90;;;5.28;100.00;99338.47;4119866;28;20030;-76
2021/12/08 03:35:24;;;;;;;2.38;2.03;;;6.10;99.90;;;5.43;100.00;99340.34;4120088;28;20033;-76
2021/12/08 03:37:32;;;;;;;3.28;2.25;;;6.10;99.90;;;5.62;100.00;99360.16;4120048;28;20027;-76
2021/12/08 03:39:34;;;;;;;4.85;2.45;;;6.10;99.90;;;5.74;100.00;99364.13;4118784;28;20062;-76
2021/12/08 03:41:35;;;;;;;6.60;2.05;;;6.10;99.90;;;5.59;100.00;99350.84;4120027;28;20019;-76
2021/12/08 03:43:36;;;;;;;4.85;2.35;;;6.20;99.90;;;5.50;100.00;99348.34;4118773;28;20097;-76
2021/12/08 03:45:44;;;;;;;7.57;2.95;;;6.20;99.90;;;5.47;100.00;99362.56;4119935;28;20105;-76
2021/12/08 03:47:48;;;;;;;4.45;2.03;;;6.10;99.90;;;5.52;100.00;99373.38;4118634;28;20085;-76
2021/12/08 03:49:49;;;;;;;5.82;2.00;;;6.10;99.90;;;5.52;100.00;99376.00;4134680;28;20186;-76
2021/12/08 03:51:50;;;;;;;5.70;3.10;;;6.10;99.90;;;5.45;100.00;99367.13;4112079;28;20110;-76
2021/12/08 03:53:51;;;;;;;5.68;2.90;;;6.10;99.90;;;5.43;100.00;99371.72;4118636;28;20030;-76
2021/12/08 03:55:54;;;;;;;6.18;2.92;;;6.10;99.90;;;5.73;100.00;99370.34;4134677;28;20113;-76
2021/12/08 03:57:55;;;;;;;4.90;2.13;;;6.10;99.90;;;5.71;100.00;99367.06;4119726;28;20499;-76
2021/12/08 03:59:56;;;;;;;6.20;1.67;;;6.10;99.90;;;5.62;100.00;99370.63;4118713;28;20031;-76
2021/12/08 04:01:57;;;;;;;6.95;2.45;;;6.10;99.90;;;5.69;100.00;99366.41;4119824;28;20446;-76
2021/12/08 04:04:04;;;;;;;2.58;1.67;;;6.40;99.90;;;5.64;100.00;99362.63;4119542;28;20058;-76
2021/12/08 04:06:25;;;;;;;3.92;1.85;;;6.20;99.90;;;5.68;100.00;99369.16;4118696;28;20023;-76
2021/12/08 04:08:39;;;;;;;3.92;1.90;;;6.10;99.90;;;5.40;100.00;99355.50;4119638;28;20474;-76
2021/12/08 04:10:41;;;;;;;10.13;1.90;;;6.10;99.90;;;5.40;100.00;99361.56;4120928;28;20045;-76
2021/12/08 04:12:42;;;;;;;4.28;1.48;;;6.00;99.90;;;5.54;100.00;99358.34;4121646;28;20035;-76
2021/12/08 04:14:58;;;;;;;4.13;2.25;;;6.10;99.90;;;5.69;100.00;99376.88;4122839;28;20030;-76
2021/12/08 04:17:18;;;;;;;4.50;1.50;;;6.10;99.90;;;5.73;100.00;99380.00;4121595;28;20034;-76
2021/12/08 04:19:20;;;;;;;6.05;1.50;;;6.10;99.90;;;5.74;100.00;99379.00;4121756;28;20433;-76
2021/12/08 04:21:22;;;;;;;5.25;1.85;;;6.10;99.90;;;5.54;100.00;99371.41;4121578;28;20026;-76
2021/12/08 04:23:28;;;;;;;5.55;2.10;;;6.00;99.90;;;5.44;100.00;99372.50;4121576;28;20021;-76
2021/12/08 04:25:34;;;;;;;2.97;1.60;;;6.00;99.90;;;5.60;100.00;99390.91;4121730;28;20089;-76
2021/12/08 04:27:39;;;;;;;3.42;1.60;;;5.90;99.90;;;5.28;100.00;99391.56;4137430;28;20026;-76
2021/12/08 04:29:43;;;;;;;3.45;1.58;;;5.90;99.90;;;5.27;100.00;99402.16;4137525;28;20038;-76
2021/12/08 04:31:45;;;;;;;4.75;1.80;;;5.80;99.90;;;5.09;100.00;99397.00;4137497;28;20027;-76
2021/12/08 04:33:54;;;;;;;5.07;1.70;;;5.80;99.90;;;5.25;100.00;99404.94;4143473;28;20081;-76
2021/12/08 04:35:56;;;;;;;4.22;1.70;;;5.80;99.90;;;5.09;100.00;99394.38;4153359;28;20022;-76
2021/12/08 04:38:03;;;;;;;3.90;1.63;;;5.80;99.90;;;5.14;100.00;99397.34;4153736;28;20109;-76
2021/12/08 04:42:42;;;;;;;5.85;1.65;;;5.70;99.90;;;5.06;100.00;99418.22;4121427;28;20070;-76
2021/12/08 04:44:53;;;;;;;7.18;3.42;;;5.70;99.90;;;5.06;100.00;99415.59;4137361;28;20026;-76
2021/12/08 04:47:53;;;;;;;4.40;2.47;;;5.70;99.90;;;5.08;100.00;99424.09;4142930;28;20029;-76
2021/12/08 05:08:12;;;;;;;4.72;1.77;;;5.80;99.90;;;5.34;100.00;99442.41;4120170;28;20026;-76
2021/12/08 05:10:22;;;;;;;2.30;1.67;;;5.80;99.90;;;5.27;100.00;99444.81;4134769;28;20041;-76
2021/12/08 05:12:30;;;;;;;2.33;1.58;;;5.90;99.90;;;5.39;100.00;99448.00;4119971;28;20035;-76
2021/12/08 05:14:42;;;;;;;4.55;1.90;;;5.90;99.90;;;5.45;100.00;99452.59;4120051;28;20031;-76
2021/12/08 05:16:48;;;;;;;2.83;1.50;;;7.10;99.90;;;5.34;100.00;99443.25;4120417;28;20110;-76
2021/12/08 05:18:52;;;;;;;3.50;2.15;;;5.90;99.90;;;5.37;100.00;99449.94;4121232;28;20410;-76
2021/12/08 05:21:39;;;;;;;2.78;1.77;;;5.60;99.90;;;5.40;100.00;99450.47;4119617;28;20027;-76
2021/12/08 05:24:03;;;;;;;4.25;1.92;;;5.90;99.90;;;5.36;100.00;99456.97;4109720;28;20034;-76
2021/12/08 05:26:32;;;;;;;3.72;1.50;;;5.70;99.90;;;5.30;100.00;99457.59;4119930;28;20039;-76
2021/12/08 05:28:34;;;;;;;4.28;2.50;;;5.90;99.90;;;5.31;100.00;99466.25;4135785;28;20023;-76
2021/12/08 05:30:54;;;;;;;2.75;1.52;;;6.10;99.90;;;5.41;100.00;99467.78;4142573;28;20057;-76
2021/12/08 05:32:56;;;;;;;3.95;1.85;;;6.00;99.90;;;5.42;100.00;99469.44;4120973;28;20077;-76
2021/12/08 05:34:58;;;;;;;6.38;2.53;;;6.00;99.90;;;5.63;100.00;99481.31;4119677;28;20114;-76
2021/12/08 05:36:59;;;;;;;4.45;1.77;;;6.00;99.90;;;5.49;100.00;99486.16;4121063;28;20545;-76
2021/12/08 05:39:06;;;;;;;5.05;1.80;;;6.10;99.90;;;5.52;100.00;99498.94;4119749;28;20102;-76
2021/12/08 05:41:20;;;;;;;7.55;2.10;;;6.10;99.90;;;4.90;100.00;99504.31;4120810;28;20027;-76
2021/12/08 05:43:22;;;;;;;2.40;1.80;;;6.00;99.90;;;5.07;100.00;99520.97;4119340;28;20058;-76
2021/12/08 05:45:23;;;;;;;5.00;1.95;;;6.00;99.90;;;5.12;100.00;99508.25;4119642;28;20035;-76
2021/12/08 05:47:29;;;;;;;3.15;1.85;;;6.00;99.90;;;5.36;100.00;99519.72;4135572;28;20038;-76
2021/12/08 05:49:30;;;;;;;6.93;2.22;;;6.00;99.90;;;5.50;100.00;99518.34;4120116;28;20034;-76
2021/12/08 05:51:34;;;;;;;3.92;1.77;;;6.10;99.90;;;5.16;100.00;99507.81;4119681;28;20123;-76
2021/12/08 05:53:40;;;;;;;5.70;2.15;;;6.00;99.90;;;5.40;100.00;99505.38;4119553;28;20090;-76
2021/12/08 05:55:44;;;;;;;2.10;1.50;;;6.10;99.90;;;4.99;100.00;99496.41;4120599;28;20117;-76
2021/12/08 05:57:45;;;;;;;4.15;1.65;;;6.00;99.90;;;5.29;100.00;99478.63;4119320;28;20045;-76
2021/12/08 05:59:50;;;;;;;2.58;2.10;;;6.00;99.90;;;5.38;100.00;99452.41;4135430;28;20034;-76
2021/12/08 06:02:10;;;;;;;6.80;1.70;;;6.00;99.90;;;5.53;100.00;99453.47;4120606;28;20034;-76
2021/12/08 06:04:12;;;;;;;2.20;1.63;;;6.10;99.90;;;5.32;100.00;99455.63;4078698;28;1191668;-76
2021/12/08 06:06:14;;;;;;;4.85;1.85;;;6.10;99.90;;;5.26;100.00;99460.63;4120159;28;20034;-76
2021/12/08 06:08:15;;;;;;;3.03;1.70;;;5.90;99.90;;;5.24;100.00;99462.59;4119823;28;20471;-76
2021/12/08 06:10:23;;;;;;;4.82;1.48;;;5.90;99.90;;;5.19;100.00;99452.63;4120060;28;20399;-76
2021/12/08 06:12:25;;;;;;;3.40;1.75;;;5.90;99.90;;;5.26;100.00;99461.47;4121059;28;20059;-76
2021/12/08 06:14:33;;;;;;;3.28;2.13;;;5.80;99.90;;;5.27;100.00;99442.19;4121091;28;20030;-76
2021/12/08 06:16:37;;;;;;;4.50;2.03;;;5.90;99.90;;;5.38;100.00;99430.66;4120052;28;20053;-76
2021/12/08 06:18:40;;;;;;;3.85;2.10;;;5.80;99.90;;;5.21;100.00;99429.75;4119932;28;20026;-76
2021/12/08 06:20:42;;;;;;;4.13;1.92;;;5.80;99.90;;;5.09;100.00;99441.44;4120076;28;20058;-76
2021/12/08 06:22:45;;;;;;;3.08;2.35;;;5.80;99.90;;;5.14;100.00;99447.00;4119896;28;20030;-76
2021/12/08 06:24:47;;;;;;;5.00;2.07;;;5.80;99.90;;;5.14;100.00;99449.63;4119953;28;20030;-76
2021/12/08 06:26:50;;;;;;;3.45;2.30;;;5.80;99.90;;;5.22;100.00;99452.31;4119624;28;20281;-76
2021/12/08 06:28:52;;;;;;;3.70;1.80;;;5.80;99.90;;;5.21;100.00;99455.88;4119994;28;20117;-76
2021/12/08 06:30:53;;;;;;;4.40;2.13;;;5.80;99.90;;;5.16;100.00;99459.94;4119625;28;20034;-76
2021/12/08 06:32:55;;;;;;;3.38;2.35;;;5.80;99.90;;;5.10;100.00;99471.00;4118965;28;20115;-76
2021/12/08 06:34:58;;;;;;;8.30;4.13;;;5.80;99.90;;;5.09;100.00;99475.41;4119561;28;20042;-76
2021/12/08 06:37:13;;;;;;;5.00;3.13;;;5.70;99.90;;;5.16;100.00;99480.84;4103757;28;20046;-76
2021/12/08 06:39:23;;;;;;;7.75;2.92;;;5.80;99.90;;;5.19;100.00;99483.16;4115474;28;20101;-76
2021/12/08 06:41:31;;;;;;;4.38;3.15;;;5.80;99.90;;;5.16;100.00;99483.47;4119524;28;20131;-76
2021/12/08 06:43:47;;;;;;;4.57;2.83;;;5.80;99.90;;;5.07;100.00;99482.59;4119581;28;20569;-76
2021/12/08 06:45:53;;;;;;;5.93;2.42;;;5.70;99.90;;;5.13;100.00;99497.66;4120646;28;20441;-76
2021/12/08 06:47:57;;;;;;;3.97;2.78;;;5.70;99.90;;;5.13;100.00;99489.81;4118960;28;20560;-76
2021/12/08 06:50:13;;;;;;;;;;;5.70;99.90;;;5.14;100.00;99491.44;4152022;28;20028;-76
2021/12/08 06:52:19;;;;;;;;;;;5.70;99.90;;;5.33;100.00;99493.06;4115637;28;19910;-76
2021/12/08 06:54:59;;;;;;;7.85;3.30;;;5.90;99.90;;;5.32;100.00;99496.63;4119078;28;19921;-76
2021/12/08 06:57:17;;;;;;;4.28;3.47;;;5.80;99.90;;;5.31;100.00;99503.69;4113365;28;20417;-76
2021/12/08 06:59:24;;;;;;;7.47;3.65;;;6.10;99.90;;;5.16;100.00;99514.81;4119025;28;20023;-76
2021/12/08 07:06:29;;;;;;;5.35;3.15;;;5.70;99.90;;;5.06;100.00;99517.53;4119326;28;20027;-76
2021/12/08 07:08:30;;;;;;;6.97;3.63;;;5.60;99.90;;;5.10;100.00;99516.25;4120272;28;20113;-76
2021/12/08 07:10:43;;;;;;;8.00;3.60;;;5.70;99.90;;;5.03;100.00;99520.44;4120200;28;20421;-76
2021/12/08 07:13:05;;;;;;;5.28;3.40;;;5.60;99.90;;;5.09;100.00;99522.44;4118921;28;20023;-76
2021/12/08 07:15:17;;;;;;;6.85;3.95;;;5.70;99.90;;;5.05;100.00;99515.06;4119994;28;20118;-76
2021/12/08 07:17:22;;;;;;;4.68;3.67;;;5.70;99.90;;;5.11;100.00;99504.03;4120284;28;20518;-76
2021/12/08 07:19:41;;;;;;;9.73;3.90;;;5.80;99.90;;;5.09;100.00;99514.59;4134826;28;20094;-76
2021/12/08 07:21:45;;;;;;;4.50;3.85;;;5.70;99.90;;;5.07;100.00;99520.97;4120074;28;20026;-76
2021/12/08 07:24:02;;;;;;;5.30;2.88;;;5.60;99.90;;;5.12;100.00;99516.91;4120322;28;20121;-76
2021/12/08 07:26:15;;;;;;;3.55;2.72;;;5.70;99.90;;;5.20;100.00;99527.44;4118995;28;20027;-76
2021/12/08 07:28:19;;;;;;;4.38;2.42;;;5.70;99.90;;;5.01;100.00;99538.06;4118430;28;20027;-76
2021/12/08 07:30:32;;;;;;;2.60;2.40;;;5.70;99.90;;;4.78;100.00;99539.50;4120052;28;20512;-76
2021/12/08 07:32:38;;;;;;;3.47;2.40;;;5.60;99.90;;;4.97;100.00;99541.94;4134076;28;20522;-76
2021/12/08 07:34:39;;;;;;;3.15;1.73;;;5.60;99.90;;;4.99;100.00;99548.66;4118594;28;20045;-76
2021/12/08 07:36:45;;;;;;;4.53;2.03;;;5.60;99.90;;;5.20;100.00;99550.13;4102707;28;20110;-76
2021/12/08 07:38:54;;;;;;;3.50;2.03;;;5.40;99.90;;;5.15;100.00;99553.22;4111264;28;20030;-76
2021/12/08 07:41:28;;;;;;;3.10;2.08;;;5.60;99.90;;;5.07;100.00;99550.53;4118686;28;20453;-76
2021/12/08 07:43:30;;;;;;;5.03;2.30;;;5.70;99.90;;;5.18;100.00;99563.38;4120009;28;20081;-76
2021/12/08 07:45:49;;;;;;;4.47;2.10;;;5.70;99.90;;;5.30;100.00;99554.31;4118541;28;20039;-76
2021/12/08 07:47:53;;;;;;;5.15;2.80;;;5.80;99.90;;;5.36;100.00;99558.13;4104305;28;20033;-76
2021/12/08 07:50:08;;;;;;;3.80;2.00;;;5.90;99.90;;;5.30;100.00;99554.31;4108542;28;20042;-76
2021/12/08 07:52:27;;;;;;;4.88;2.67;;;5.90;99.90;;;5.39;100.00;99557.81;4113377;28;20362;-76
2021/12/08 07:54:30;;;;;;;2.40;2.00;;;5.90;99.90;;;5.36;100.00;99556.34;4118734;28;20027;-76
2021/12/08 07:56:35;;;;;;;5.82;2.45;;;6.00;99.90;;;5.29;100.00;99557.06;4118592;28;20035;-76
2021/12/08 07:58:40;;;;;;;6.82;2.60;;;5.90;99.90;;;5.32;100.00;99554.97;4119890;28;20027;-76
2021/12/08 08:00:49;;;;;;;7.13;3.42;;;6.00;99.90;;;5.33;100.00;99569.72;4118569;28;20034;-76
2021/12/08 08:02:52;;;;;;;5.72;3.55;;;6.00;99.90;;;5.34;100.00;99566.13;4119972;28;20037;-76
2021/12/08 08:04:58;;;;;;;5.10;3.83;;;5.90;99.90;;;5.49;100.00;99564.63;4118430;28;20055;-76
2021/12/08 08:07:00;;;;;;;5.15;2.53;;;6.00;99.90;;;5.49;100.00;99554.16;4119795;28;20037;-76
2021/12/08 08:09:06;;;;;;;2.42;2.22;;;6.00;99.90;;;5.37;100.00;99551.94;4118519;28;20027;-76
2021/12/08 08:11:23;;;;;;;3.33;1.88;;;6.10;99.90;;;5.33;100.00;99558.41;4119874;28;20042;-76
2021/12/08 08:13:28;;;;;;;2.72;2.08;;;6.00;99.90;;;5.38;100.00;99558.78;4119784;28;20061;-76
2021/12/08 08:15:36;;;;;;;3.20;2.25;;;6.00;99.90;;;5.36;100.00;99555.50;4102351;28;20118;-76
2021/12/08 08:17:42;;;;;;;3.65;2.53;;;6.00;99.90;;;5.37;100.00;99559.78;4108250;28;20023;-76
2021/12/08 08:19:47;;;;;;;2.42;1.85;;;6.00;99.90;;;5.40;100.00;99562.09;4113692;28;20109;-76
2021/12/08 08:21:51;;;;;;;3.88;2.38;;;6.10;99.90;;;5.40;100.00;99565.53;4118427;28;20023;-76
2021/12/08 08:23:54;;;;;;;3.40;2.35;;;6.10;99.90;;;5.41;100.00;99572.38;4118622;28;20109;-76
2021/12/08 08:25:56;;;;;;;4.00;2.47;;;6.00;99.90;;;5.34;100.00;99567.91;4102400;28;20051;-76
2021/12/08 08:27:57;;;;;;;3.88;2.50;;;6.00;99.90;;;5.37;100.00;99570.22;4112908;28;20026;-76
2021/12/08 08:29:58;;;;;;;6.13;1.90;;;6.00;99.90;;;5.24;100.00;99575.00;4134409;28;20089;-77
2021/12/08 08:32:20;;;;;;;3.60;2.58;;;5.90;99.90;;;5.29;100.00;99572.75;4107724;28;20157;-77
2021/12/08 08:34:22;;;;;;;5.50;2.50;;;6.00;99.90;;;5.35;100.00;99582.63;4119561;28;20035;-76
2021/12/08 08:36:31;;;;;;;5.45;3.05;;;5.90;99.90;;;5.15;100.00;99581.97;4119382;28;20030;-76
2021/12/08 08:38:40;;;;;;;6.13;3.42;;;5.90;99.90;;;5.06;100.00;99588.09;4119559;28;20126;-76
2021/12/08 08:40:56;;;;;;;5.35;3.42;;;5.80;99.90;;;5.17;100.00;99579.22;4119428;28;20030;-76
2021/12/08 08:42:59;;;;;;;4.35;3.00;;;5.90;99.90;;;5.34;100.00;99584.44;4117070;28;20027;-76
2021/12/08 08:45:15;;;;;;;6.90;3.97;;;5.90;99.90;;;5.35;100.00;99588.66;4119423;28;20069;-76
2021/12/08 08:47:28;;;;;;;8.20;4.65;;;5.90;99.90;;;5.30;100.00;99590.94;4118216;28;20458;-76
2021/12/08 08:49:31;;;;;;;6.72;3.92;;;5.90;99.90;;;5.33;100.00;99600.25;4119155;28;20034;-76
2021/12/08 08:51:45;;;;;;;6.53;3.58;;;5.90;99.90;;;5.26;100.00;99589.56;4118243;28;20031;-76
2021/12/08 08:53:52;;;;;;;4.35;3.03;;;5.90;99.90;;;5.28;100.00;99589.44;4118128;28;20401;-76
2021/12/08 08:56:04;;;;;;;4.60;3.08;;;6.00;99.90;;;5.20;100.00;99605.84;4118045;28;20034;-75
2021/12/08 08:58:08;;;;;;;9.82;4.45;;;5.90;99.90;;;5.38;100.00;99604.06;4121017;28;20406;-76
2021/12/08 09:00:31;;;;;;;6.95;3.13;;;6.00;99.90;;;5.45;100.00;99605.13;4121160;28;20518;-76
2021/12/08 09:02:38;;;;;;;6.78;4.18;;;6.00;99.90;;;5.38;100.00;99618.91;4122094;28;20030;-76
2021/12/08 09:04:59;;;;;;;6.93;3.42;;;6.00;99.90;;;5.20;100.00;99616.31;4120973;28;20078;-77
2021/12/08 09:07:06;;;;;;;5.88;3.42;;;6.00;99.90;;;5.11;100.00;99616.41;4119980;28;20031;-76
2021/12/08 09:09:13;;;;;;;10.52;4.85;;;5.90;99.90;;;5.29;100.00;99609.38;4107859;28;20106;-76
2021/12/08 09:11:47;;;;;;;15.13;7.03;;;5.90;99.90;;;5.17;100.00;99607.97;4120249;28;20569;-76
2021/12/08 09:14:16;;;;;;;11.07;5.43;;;5.90;99.90;;;5.20;100.00;99613.69;4121447;28;20034;-76
2021/12/08 09:17:00;;;;;;;9.35;4.20;;;5.90;99.90;;;5.18;100.00;99609.59;4113226;28;20039;-77
2021/12/08 09:19:35;;;;;;;7.15;4.38;;;5.80;99.90;;;5.13;100.00;99604.81;4121351;28;20517;-76
2021/12/08 09:21:47;;;;;;;7.20;3.97;;;5.70;99.90;;;5.33;100.00;99624.63;4120224;28;20018;-77
2021/12/08 09:24:03;;;;;;;4.75;3.95;;;5.80;99.90;;;5.32;100.00;99619.53;4109768;28;20055;-76
2021/12/08 09:26:10;;;;;;;4.32;3.17;;;5.90;99.90;;;5.29;100.00;99631.09;4121637;28;20106;-77
2021/12/08 09:28:22;;;;;;;12.55;5.13;;;5.90;99.90;;;5.32;100.00;99636.03;4104464;28;20027;-76
2021/12/08 09:30:55;;;;;;;6.45;3.55;;;5.90;99.90;;;5.27;100.00;99646.13;4108825;28;20030;-77
2021/12/08 09:33:12;;;;;;;6.10;4.38;;;5.90;99.90;;;5.30;100.00;99645.00;4117573;28;20023;-77
2021/12/08 09:35:27;;;;;;;7.80;4.38;;;5.90;99.90;;;5.30;100.00;99648.44;4120622;28;20101;-76
2021/12/08 09:37:34;;;;;;;;;;;5.90;99.90;;;5.38;100.00;99648.50;4122033;28;20018;-80
2021/12/08 09:39:49;;;;;;;6.10;4.00;;;5.90;99.90;;;5.41;100.00;99653.44;4121442;28;19910;-81
2021/12/08 09:42:17;;;;;;;8.02;4.18;;;6.10;99.90;;;5.42;100.00;99667.34;4120352;28;20043;-80
2021/12/08 09:44:33;;;;;;;10.32;5.40;;;6.10;99.90;;;5.11;100.00;99679.13;4121487;28;20140;-80
2021/12/08 09:46:42;;;;;;;10.38;5.88;;;6.20;99.90;;;5.02;100.00;99684.25;4120433;28;20037;-80
2021/12/08 09:48:45;;;;;;;6.13;4.18;;;6.10;99.90;;;5.04;100.00;99689.34;4120218;28;20026;-80